sensor_id;sensor_type;location;lat;lon;timestamp;temperature;humidity
16974;DHT22;8603;46.944;7.412;2022-11-09T00:01:24;5.80;99.90
16974;DHT22;8603;46.944;7.412;2022-11-09T00:03:56;5.80;99.90
16974;DHT22;8603;46.944;7.412;2022-11-09T00:06:26;5.90;99.90
16974;DHT22;8603;46.944;7.412;2022-11-09T00:08:52;5.90;99.90
16974;DHT22;8603;46.944;7.412;2022-11-09T00:11:18;6.00;99.90
16974;DHT22;8603;46.944;7.412;2022-11-09T00:13:44;6.00;99.90
16974;DHT22;8603;46.944;7.412;2022-11-09T00:16:15;6.10;99.90
16974;DHT22;8603;46.944;7.412;2022-11-09T00:18:41;6.10;99.90
16974;DHT22;8603;46.944;7.412;2022-11-09T00:21:14;6.20;99.90
16974;DHT22;8603;46.944;7.412;2022-11-09T00:23:40;6.30;99.90
16974;DHT22;8603;46.944;7.412;2022-11-09T00:26:07;6.40;99.90
16974;DHT22;8603;46.944;7.412;2022-11-09T00:28:38;6.40;99.90
16974;DHT22;8603;46.944;7.412;2022-11-09T00:31:11;6.50;99.90
16974;DHT22;8603;46.944;7.412;2022-11-09T00:33:42;6.50;99.90
16974;DHT22;8603;46.944;7.412;2022-11-09T00:36:11;6.50;99.90
16974;DHT22;8603;46.944;7.412;2022-11-09T00:38:38;6.60;99.90
16974;DHT22;8603;46.944;7.412;2022-11-09T00:41:09;6.70;99.90
16974;DHT22;8603;46.944;7.412;2022-11-09T00:43:48;6.70;99.90
16974;DHT22;8603;46.944;7.412;2022-11-09T00:46:14;6.70;99.90
16974;DHT22;8603;46.944;7.412;2022-11-09T00:48:40;6.80;99.90
16974;DHT22;8603;46.944;7.412;2022-11-09T00:51:06;6.80;99.90
16974;DHT22;8603;46.944;7.412;2022-11-09T00:53:43;6.90;99.90
16974;DHT22;8603;46.944;7.412;2022-11-09T00:56:43;6.90;99.90
16974;DHT22;8603;46.944;7.412;2022-11-09T00:59:25;7.00;99.90
16974;DHT22;8603;46.944;7.412;2022-11-09T01:01:55;7.00;99.90
16974;DHT22;8603;46.944;7.412;2022-11-09T01:07:10;7.00;99.90
16974;DHT22;8603;46.944;7.412;2022-11-09T01:09:50;7.00;99.90
16974;DHT22;8603;46.944;7.412;2022-11-09T01:12:27;7.00;99.90
16974;DHT22;8603;46.944;7.412;2022-11-09T01:14:55;7.00;99.90
16974;DHT22;8603;46.944;7.412;2022-11-09T01:17:29;7.00;99.90
16974;DHT22;8603;46.944;7.412;2022-11-09T01:19:55;7.00;99.90
16974;DHT22;8603;46.944;7.412;2022-11-09T01:22:20;7.10;99.90
16974;DHT22;8603;46.944;7.412;2022-11-09T01:25:04;7.00;99.90
16974;DHT22;8603;46.944;7.412;2022-11-09T01:27:38;7.00;99.90
16974;DHT22;8603;46.944;7.412;2022-11-09T01:30:04;7.00;99.90
16974;DHT22;8603;46.944;7.412;2022-11-09T01:32:32;6.90;99.90
16974;DHT22;8603;46.944;7.412;2022-11-09T01:34:58;6.90;99.90
16974;DHT22;8603;46.944;7.412;2022-11-09T01:37:24;6.80;99.90
16974;DHT22;8603;46.944;7.412;2022-11-09T01:39:49;6.80;99.90
16974;DHT22;8603;46.944;7.412;2022-11-09T01:42:27;6.80;99.90
16974;DHT22;8603;46.944;7.412;2022-11-09T01:47:50;6.90;99.90
16974;DHT22;8603;46.944;7.412;2022-11-09T01:50:28;6.70;99.90
16974;DHT22;8603;46.944;7.412;2022-11-09T01:52:59;6.80;99.90
16974;DHT22;8603;46.944;7.412;2022-11-09T01:55:39;6.70;99.90
16974;DHT22;8603;46.944;7.412;2022-11-09T01:58:26;6.70;99.90
16974;DHT22;8603;46.944;7.412;2022-11-09T02:01:38;6.60;99.90
16974;DHT22;8603;46.944;7.412;2022-11-09T02:04:20;6.60;99.90
16974;DHT22;8603;46.944;7.412;2022-11-09T02:06:48;6.50;99.90
16974;DHT22;8603;46.944;7.412;2022-11-09T02:09:30;6.70;99.90
16974;DHT22;8603;46.944;7.412;2022-11-09T02:11:57;6.70;99.90
16974;DHT22;8603;46.944;7.412;2022-11-09T02:14:25;6.80;99.90
16974;DHT22;8603;46.944;7.412;2022-11-09T02:16:52;6.80;99.90
16974;DHT22;8603;46.944;7.412;2022-11-09T02:19:17;6.80;99.90
16974;DHT22;8603;46.944;7.412;2022-11-09T02:21:43;6.80;99.90
16974;DHT22;8603;46.944;7.412;2022-11-09T02:26:53;6.90;99.90
16974;DHT22;8603;46.944;7.412;2022-11-09T02:29:26;6.90;99.90
16974;DHT22;8603;46.944;7.412;2022-11-09T02:31:59;7.00;99.90
16974;DHT22;8603;46.944;7.412;2022-11-09T02:34:25;7.00;99.90
16974;DHT22;8603;46.944;7.412;2022-11-09T02:36:51;7.10;99.90
16974;DHT22;8603;46.944;7.412;2022-11-09T02:39:19;7.10;99.90
16974;DHT22;8603;46.944;7.412;2022-11-09T02:41:57;7.20;99.90
16974;DHT22;8603;46.944;7.412;2022-11-09T02:44:24;7.20;99.90
16974;DHT22;8603;46.944;7.412;2022-11-09T02:46:53;7.30;99.90
16974;DHT22;8603;46.944;7.412;2022-11-09T02:49:21;7.30;99.90
16974;DHT22;8603;46.944;7.412;2022-11-09T02:51:47;7.40;99.90
16974;DHT22;8603;46.944;7.412;2022-11-09T02:54:13;7.40;99.90
16974;DHT22;8603;46.944;7.412;2022-11-09T02:56:38;7.40;99.90
16974;DHT22;8603;46.944;7.412;2022-11-09T04:41:14;7.50;99.90
16974;DHT22;8603;46.944;7.412;2022-11-09T04:43:40;7.50;99.90
16974;DHT22;8603;46.944;7.412;2022-11-09T04:46:07;7.50;99.90
16974;DHT22;8603;46.944;7.412;2022-11-09T04:48:33;7.50;99.90
16974;DHT22;8603;46.944;7.412;2022-11-09T04:51:04;7.50;99.90
16974;DHT22;8603;46.944;7.412;2022-11-09T04:53:31;7.50;99.90
16974;DHT22;8603;46.944;7.412;2022-11-09T04:55:59;7.60;99.90
16974;DHT22;8603;46.944;7.412;2022-11-09T04:58:25;7.50;99.90
16974;DHT22;8603;46.944;7.412;2022-11-09T05:00:52;7.40;99.90
16974;DHT22;8603;46.944;7.412;2022-11-09T05:03:19;7.50;99.90
16974;DHT22;8603;46.944;7.412;2022-11-09T05:08:59;7.50;99.90
16974;DHT22;8603;46.944;7.412;2022-11-09T05:11:26;7.50;99.90
16974;DHT22;8603;46.944;7.412;2022-11-09T05:13:52;7.50;99.90
16974;DHT22;8603;46.944;7.412;2022-11-09T05:16:18;7.50;99.90
16974;DHT22;8603;46.944;7.412;2022-11-09T05:18:47;7.50;99.90
16974;DHT22;8603;46.944;7.412;2022-11-09T05:21:13;7.50;99.90
16974;DHT22;8603;46.944;7.412;2022-11-09T05:23:44;7.50;99.90
16974;DHT22;8603;46.944;7.412;2022-11-09T05:26:31;7.50;99.90
16974;DHT22;8603;46.944;7.412;2022-11-09T05:28:58;7.50;99.90
16974;DHT22;8603;46.944;7.412;2022-11-09T05:31:25;7.40;99.90
16974;DHT22;8603;46.944;7.412;2022-11-09T05:33:51;7.50;99.90
16974;DHT22;8603;46.944;7.412;2022-11-09T05:36:20;7.40;99.90
16974;DHT22;8603;46.944;7.412;2022-11-09T05:39:23;7.40;99.90
16974;DHT22;8603;46.944;7.412;2022-11-09T05:41:56;7.40;99.90
16974;DHT22;8603;46.944;7.412;2022-11-09T05:44:37;7.40;99.90
16974;DHT22;8603;46.944;7.412;2022-11-09T05:49:57;7.40;99.90
16974;DHT22;8603;46.944;7.412;2022-11-09T05:52:23;7.40;99.90
16974;DHT22;8603;46.944;7.412;2022-11-09T05:54:48;7.40;99.90
16974;DHT22;8603;46.944;7.412;2022-11-09T05:57:14;7.40;99.90
16974;DHT22;8603;46.944;7.412;2022-11-09T05:59:40;7.40;99.90
16974;DHT22;8603;46.944;7.412;2022-11-09T06:02:05;7.30;99.90
16974;DHT22;8603;46.944;7.412;2022-11-09T06:04:44;7.40;99.90
16974;DHT22;8603;46.944;7.412;2022-11-09T06:07:17;7.40;99.90
16974;DHT22;8603;46.944;7.412;2022-11-09T06:09:43;7.40;99.90
16974;DHT22;8603;46.944;7.412;2022-11-09T06:12:09;7.40;99.90
16974;DHT22;8603;46.944;7.412;2022-11-09T06:15:07;7.40;99.90
16974;DHT22;8603;46.944;7.412;2022-11-09T06:18:01;7.30;99.90
16974;DHT22;8603;46.944;7.412;2022-11-09T06:20:27;7.30;99.90
16974;DHT22;8603;46.944;7.412;2022-11-09T06:22:58;7.30;99.90
16974;DHT22;8603;46.944;7.412;2022-11-09T06:25:27;7.30;99.90
16974;DHT22;8603;46.944;7.412;2022-11-09T06:27:54;7.30;99.90
16974;DHT22;8603;46.944;7.412;2022-11-09T06:30:21;7.30;99.90
16974;DHT22;8603;46.944;7.412;2022-11-09T06:32:46;7.30;99.90
16974;DHT22;8603;46.944;7.412;2022-11-09T06:35:13;7.30;99.90
16974;DHT22;8603;46.944;7.412;2022-11-09T06:37:39;7.40;99.90
16974;DHT22;8603;46.944;7.412;2022-11-09T06:40:08;7.40;99.90
16974;DHT22;8603;46.944;7.412;2022-11-09T06:42:34;7.50;99.90
16974;DHT22;8603;46.944;7.412;2022-11-09T06:44:59;7.60;99.90
16974;DHT22;8603;46.944;7.412;2022-11-09T06:47:26;7.60;99.90
16974;DHT22;8603;46.944;7.412;2022-11-09T06:49:53;7.60;99.90
16974;DHT22;8603;46.944;7.412;2022-11-09T06:52:18;7.70;99.90
16974;DHT22;8603;46.944;7.412;2022-11-09T06:54:44;7.70;99.90
16974;DHT22;8603;46.944;7.412;2022-11-09T06:57:09;7.90;99.90
16974;DHT22;8603;46.944;7.412;2022-11-09T06:59:35;7.90;99.90
16974;DHT22;8603;46.944;7.412;2022-11-09T07:02:01;7.90;99.90
16974;DHT22;8603;46.944;7.412;2022-11-09T07:04:26;7.80;99.90
16974;DHT22;8603;46.944;7.412;2022-11-09T07:06:52;7.90;99.90
16974;DHT22;8603;46.944;7.412;2022-11-09T07:09:18;7.90;99.90
16974;DHT22;8603;46.944;7.412;2022-11-09T07:11:43;7.90;99.90
16974;DHT22;8603;46.944;7.412;2022-11-09T07:14:09;7.90;99.90
16974;DHT22;8603;46.944;7.412;2022-11-09T07:16:35;7.90;99.90
16974;DHT22;8603;46.944;7.412;2022-11-09T07:19:01;8.00;99.90
16974;DHT22;8603;46.944;7.412;2022-11-09T07:21:27;8.00;99.90
16974;DHT22;8603;46.944;7.412;2022-11-09T07:23:53;8.00;99.90
16974;DHT22;8603;46.944;7.412;2022-11-09T07:26:19;8.10;99.90
16974;DHT22;8603;46.944;7.412;2022-11-09T07:28:44;8.10;99.90
16974;DHT22;8603;46.944;7.412;2022-11-09T07:31:10;8.20;99.90
16974;DHT22;8603;46.944;7.412;2022-11-09T07:33:36;8.20;99.90
16974;DHT22;8603;46.944;7.412;2022-11-09T07:36:03;8.30;99.90
16974;DHT22;8603;46.944;7.412;2022-11-09T07:38:30;8.30;99.90
16974;DHT22;8603;46.944;7.412;2022-11-09T07:40:59;8.40;99.90
16974;DHT22;8603;46.944;7.412;2022-11-09T07:43:26;8.40;99.90
16974;DHT22;8603;46.944;7.412;2022-11-09T07:45:52;8.40;99.90
16974;DHT22;8603;46.944;7.412;2022-11-09T07:48:19;8.40;99.90
16974;DHT22;8603;46.944;7.412;2022-11-09T07:50:44;8.50;99.90
16974;DHT22;8603;46.944;7.412;2022-11-09T07:53:12;8.40;99.90
16974;DHT22;8603;46.944;7.412;2022-11-09T07:55:39;8.50;99.90
16974;DHT22;8603;46.944;7.412;2022-11-09T07:58:11;8.60;99.90
16974;DHT22;8603;46.944;7.412;2022-11-09T08:00:38;8.60;99.90
16974;DHT22;8603;46.944;7.412;2022-11-09T08:03:06;8.70;99.90
16974;DHT22;8603;46.944;7.412;2022-11-09T08:05:32;8.80;99.90
16974;DHT22;8603;46.944;7.412;2022-11-09T08:08:01;8.80;99.90
16974;DHT22;8603;46.944;7.412;2022-11-09T08:10:29;8.90;99.90
16974;DHT22;8603;46.944;7.412;2022-11-09T08:12:56;8.90;99.90
16974;DHT22;8603;46.944;7.412;2022-11-09T08:15:23;9.00;99.90
16974;DHT22;8603;46.944;7.412;2022-11-09T08:17:49;9.10;99.90
16974;DHT22;8603;46.944;7.412;2022-11-09T08:20:15;9.20;99.90
16974;DHT22;8603;46.944;7.412;2022-11-09T08:22:42;9.30;99.90
16974;DHT22;8603;46.944;7.412;2022-11-09T08:25:08;9.40;99.90
16974;DHT22;8603;46.944;7.412;2022-11-09T08:27:34;9.60;99.90
16974;DHT22;8603;46.944;7.412;2022-11-09T08:30:09;9.70;99.90
16974;DHT22;8603;46.944;7.412;2022-11-09T08:32:35;9.80;99.90
16974;DHT22;8603;46.944;7.412;2022-11-09T08:35:02;9.80;99.90
16974;DHT22;8603;46.944;7.412;2022-11-09T08:37:27;9.90;99.90
16974;DHT22;8603;46.944;7.412;2022-11-09T08:39:53;9.90;99.90
16974;DHT22;8603;46.944;7.412;2022-11-09T08:42:20;9.90;99.90
16974;DHT22;8603;46.944;7.412;2022-11-09T08:44:45;9.90;99.90
16974;DHT22;8603;46.944;7.412;2022-11-09T08:47:11;9.90;99.90
16974;DHT22;8603;46.944;7.412;2022-11-09T08:49:37;9.90;99.90
16974;DHT22;8603;46.944;7.412;2022-11-09T08:52:03;9.90;99.90
16974;DHT22;8603;46.944;7.412;2022-11-09T08:54:29;9.90;99.90
16974;DHT22;8603;46.944;7.412;2022-11-09T08:56:55;9.90;99.90
16974;DHT22;8603;46.944;7.412;2022-11-09T08:59:22;9.90;99.90
16974;DHT22;8603;46.944;7.412;2022-11-09T09:01:48;9.90;99.90
16974;DHT22;8603;46.944;7.412;2022-11-09T09:04:14;9.90;99.90
16974;DHT22;8603;46.944;7.412;2022-11-09T09:06:40;10.00;99.90
16974;DHT22;8603;46.944;7.412;2022-11-09T09:09:05;10.10;99.90
16974;DHT22;8603;46.944;7.412;2022-11-09T09:11:31;10.10;99.90
16974;DHT22;8603;46.944;7.412;2022-11-09T09:13:57;10.30;99.90
16974;DHT22;8603;46.944;7.412;2022-11-09T09:16:23;10.50;99.90
16974;DHT22;8603;46.944;7.412;2022-11-09T09:18:49;10.70;99.90
16974;DHT22;8603;46.944;7.412;2022-11-09T09:21:15;10.80;99.90
16974;DHT22;8603;46.944;7.412;2022-11-09T09:27:16;11.00;99.90
16974;DHT22;8603;46.944;7.412;2022-11-09T09:29:44;11.10;99.90
16974;DHT22;8603;46.944;7.412;2022-11-09T09:32:13;11.10;99.90
16974;DHT22;8603;46.944;7.412;2022-11-09T09:34:39;11.30;99.90
16974;DHT22;8603;46.944;7.412;2022-11-09T09:37:05;11.50;99.90
16974;DHT22;8603;46.944;7.412;2022-11-09T09:39:31;11.60;99.90
16974;DHT22;8603;46.944;7.412;2022-11-09T09:42:17;11.70;99.90
16974;DHT22;8603;46.944;7.412;2022-11-09T09:45:27;11.90;99.90
16974;DHT22;8603;46.944;7.412;2022-11-09T09:51:54;12.00;99.90
16974;DHT22;8603;46.944;7.412;2022-11-09T09:58:17;12.00;99.90
16974;DHT22;8603;46.944;7.412;2022-11-09T10:11:23;12.30;99.90
16974;DHT22;8603;46.944;7.412;2022-11-09T10:23:04;12.60;99.90
16974;DHT22;8603;46.944;7.412;2022-11-09T10:25:30;12.80;99.90
16974;DHT22;8603;46.944;7.412;2022-11-09T10:27:56;12.90;99.90
16974;DHT22;8603;46.944;7.412;2022-11-09T10:30:24;13.00;99.90
16974;DHT22;8603;46.944;7.412;2022-11-09T10:32:55;13.10;99.90
16974;DHT22;8603;46.944;7.412;2022-11-09T10:35:39;13.20;99.90
16974;DHT22;8603;46.944;7.412;2022-11-09T10:38:12;13.30;99.90
16974;DHT22;8603;46.944;7.412;2022-11-09T10:40:58;13.30;99.90
16974;DHT22;8603;46.944;7.412;2022-11-09T10:43:27;13.20;99.90
16974;DHT22;8603;46.944;7.412;2022-11-09T10:46:01;13.10;99.90
16974;DHT22;8603;46.944;7.412;2022-11-09T10:48:32;13.10;99.90
16974;DHT22;8603;46.944;7.412;2022-11-09T10:50:58;13.10;99.90
16974;DHT22;8603;46.944;7.412;2022-11-09T10:54:36;13.10;99.90
16974;DHT22;8603;46.944;7.412;2022-11-09T11:03:44;13.20;99.90
16974;DHT22;8603;46.944;7.412;2022-11-09T11:14:28;13.40;99.90
16974;DHT22;8603;46.944;7.412;2022-11-09T11:17:33;13.40;99.90
16974;DHT22;8603;46.944;7.412;2022-11-09T11:20:32;13.30;99.90
16974;DHT22;8603;46.944;7.412;2022-11-09T11:23:24;13.20;99.90
16974;DHT22;8603;46.944;7.412;2022-11-09T11:26:05;13.10;99.90
16974;DHT22;8603;46.944;7.412;2022-11-09T11:28:51;13.00;99.90
16974;DHT22;8603;46.944;7.412;2022-11-09T11:31:19;12.90;99.90
16974;DHT22;8603;46.944;7.412;2022-11-09T11:33:45;12.80;99.90
16974;DHT22;8603;46.944;7.412;2022-11-09T11:36:40;12.80;99.90
16974;DHT22;8603;46.944;7.412;2022-11-09T11:45:08;12.70;99.90
16974;DHT22;8603;46.944;7.412;2022-11-09T11:56:51;12.80;99.90
16974;DHT22;8603;46.944;7.412;2022-11-09T12:00:03;12.80;99.90
16974;DHT22;8603;46.944;7.412;2022-11-09T12:05:41;12.80;99.90
16974;DHT22;8603;46.944;7.412;2022-11-09T12:11:16;12.80;99.90
16974;DHT22;8603;46.944;7.412;2022-11-09T12:16:30;12.70;99.90
16974;DHT22;8603;46.944;7.412;2022-11-09T12:24:40;12.70;99.90
16974;DHT22;8603;46.944;7.412;2022-11-09T12:30:08;12.70;99.90
16974;DHT22;8603;46.944;7.412;2022-11-09T12:32:45;12.70;99.90
16974;DHT22;8603;46.944;7.412;2022-11-09T12:38:04;12.70;99.90
16974;DHT22;8603;46.944;7.412;2022-11-09T12:40:38;12.70;99.90
16974;DHT22;8603;46.944;7.412;2022-11-09T12:45:52;12.60;99.90
16974;DHT22;8603;46.944;7.412;2022-11-09T12:48:46;12.60;99.90
16974;DHT22;8603;46.944;7.412;2022-11-09T12:51:23;12.60;99.90
16974;DHT22;8603;46.944;7.412;2022-11-09T12:54:07;12.60;99.90
16974;DHT22;8603;46.944;7.412;2022-11-09T12:56:49;12.50;99.90
16974;DHT22;8603;46.944;7.412;2022-11-09T12:59:36;12.50;99.90
16974;DHT22;8603;46.944;7.412;2022-11-09T13:02:54;12.40;99.90
16974;DHT22;8603;46.944;7.412;2022-11-09T13:05:35;12.30;99.90
16974;DHT22;8603;46.944;7.412;2022-11-09T13:08:16;12.30;99.90
16974;DHT22;8603;46.944;7.412;2022-11-09T13:23:03;12.30;99.90
16974;DHT22;8603;46.944;7.412;2022-11-09T13:45:42;12.00;99.90
16974;DHT22;8603;46.944;7.412;2022-11-09T13:51:17;12.00;99.90
16974;DHT22;8603;46.944;7.412;2022-11-09T13:54:23;11.90;99.90
16974;DHT22;8603;46.944;7.412;2022-11-09T13:57:21;11.90;99.90
16974;DHT22;8603;46.944;7.412;2022-11-09T13:59:59;11.80;99.90
16974;DHT22;8603;46.944;7.412;2022-11-09T14:02:56;11.70;99.90
16974;DHT22;8603;46.944;7.412;2022-11-09T14:05:34;11.70;99.90
16974;DHT22;8603;46.944;7.412;2022-11-09T14:08:32;11.60;99.90
16974;DHT22;8603;46.944;7.412;2022-11-09T14:20:40;11.40;99.90
16974;DHT22;8603;46.944;7.412;2022-11-09T14:23:46;11.40;99.90
16974;DHT22;8603;46.944;7.412;2022-11-09T14:26:32;11.40;99.90
16974;DHT22;8603;46.944;7.412;2022-11-09T14:29:24;11.30;99.90
16974;DHT22;8603;46.944;7.412;2022-11-09T14:32:15;11.30;99.90
16974;DHT22;8603;46.944;7.412;2022-11-09T14:41:17;11.20;99.90
16974;DHT22;8603;46.944;7.412;2022-11-09T14:44:28;11.10;99.90
16974;DHT22;8603;46.944;7.412;2022-11-09T14:47:16;11.10;99.90
16974;DHT22;8603;46.944;7.412;2022-11-09T14:53:01;11.10;99.90
16974;DHT22;8603;46.944;7.412;2022-11-09T14:55:42;11.00;99.90
16974;DHT22;8603;46.944;7.412;2022-11-09T15:35:44;10.90;99.90
16974;DHT22;8603;46.944;7.412;2022-11-09T15:42:03;10.90;99.90
16974;DHT22;8603;46.944;7.412;2022-11-09T15:45:12;10.80;99.90
16974;DHT22;8603;46.944;7.412;2022-11-09T16:05:07;10.70;99.90
16974;DHT22;8603;46.944;7.412;2022-11-09T16:33:06;10.60;99.90
16974;DHT22;8603;46.944;7.412;2022-11-09T16:43:52;10.40;99.90
16974;DHT22;8603;46.944;7.412;2022-11-09T16:50:32;10.60;99.90
16974;DHT22;8603;46.944;7.412;2022-11-09T18:36:40;10.10;99.90
16974;DHT22;8603;46.944;7.412;2022-11-09T18:39:14;10.10;99.90
16974;DHT22;8603;46.944;7.412;2022-11-09T19:41:18;9.70;99.90
16974;DHT22;8603;46.944;7.412;2022-11-09T21:23:41;9.40;99.90
16974;DHT22;8603;46.944;7.412;2022-11-09T21:30:02;9.40;99.90
16974;DHT22;8603;46.944;7.412;2022-11-09T21:47:24;9.60;99.90
16974;DHT22;8603;46.944;7.412;2022-11-09T21:50:34;9.60;99.90
16974;DHT22;8603;46.944;7.412;2022-11-09T21:53:25;9.60;99.90
16974;DHT22;8603;46.944;7.412;2022-11-09T21:59:24;9.50;99.90
16974;DHT22;8603;46.944;7.412;2022-11-09T22:33:07;9.30;99.90
16974;DHT22;8603;46.944;7.412;2022-11-09T22:53:30;9.30;99.90
